Time;durP1;ratioP1;P1;durP2;ratioP2;P2;SDS_P1;SDS_P2;PMS_P1;PMS_P2;Temp;Humidity;BMP_temperature;BMP_pressure;BME280_temperature;BME280_humidity;BME280_pressure;Samples;Min_cycle;Max_cycle;Signal;HPM_P1;HPM_P2
2024/03/21 00:00:32;;;;;;;4.95;4.45;;;10.80;99.90;;;;;;4888226;29;20216;-84
2024/03/21 00:02:59;;;;;;;5.32;4.93;;;10.50;99.90;;;;;;4892870;29;20194;-84
2024/03/21 00:05:26;;;;;;;8.23;4.70;;;10.40;99.90;;;;;;4876704;29;20194;-84
2024/03/21 00:07:52;;;;;;;6.07;4.80;;;10.60;99.90;;;;;;4877842;29;20359;-82
2024/03/21 00:10:22;;;;;;;5.57;4.68;;;10.80;99.90;;;;;;4879775;29;20193;-83
2024/03/21 00:12:48;;;;;;;5.00;4.60;;;10.70;99.90;;;;;;4914982;29;20255;-84
2024/03/21 00:15:15;;;;;;;5.65;4.95;;;10.00;99.90;;;;;;4889488;29;20188;-84
2024/03/21 00:17:42;;;;;;;4.82;4.43;;;10.60;99.90;;;;;;4891619;29;20356;-84
2024/03/21 00:20:10;;;;;;;7.40;5.05;;;10.60;99.90;;;;;;4910155;29;20212;-84
2024/03/21 00:22:40;;;;;;;6.57;5.00;;;10.20;99.90;;;;;;4894403;29;20651;-82
2024/03/21 00:25:07;;;;;;;8.85;5.15;;;10.10;99.90;;;;;;4884392;29;20219;-83
2024/03/21 00:27:33;;;;;;;5.57;4.70;;;10.60;99.90;;;;;;4889806;29;20224;-84
2024/03/21 00:29:59;;;;;;;6.82;6.10;;;10.40;99.90;;;;;;4877776;29;20201;-82
2024/03/21 00:32:24;;;;;;;8.43;5.10;;;10.60;99.90;;;;;;4892702;29;20555;-84
2024/03/21 00:34:50;;;;;;;5.93;5.17;;;10.00;99.90;;;;;;4898995;29;20233;-82
2024/03/21 00:37:15;;;;;;;4.80;4.33;;;10.00;99.90;;;;;;4894115;29;20232;-82
2024/03/21 00:39:43;;;;;;;4.53;4.13;;;10.60;99.90;;;;;;4875624;29;20279;-83
2024/03/21 00:42:12;;;;;;;4.40;4.00;;;10.10;99.90;;;;;;4893996;29;20484;-82
2024/03/21 00:44:37;;;;;;;4.45;4.05;;;10.20;99.90;;;;;;4892410;29;20191;-82
2024/03/21 00:47:03;;;;;;;5.23;3.97;;;10.40;99.90;;;;;;4872738;29;20506;-82
2024/03/21 00:49:29;;;;;;;4.53;3.93;;;10.10;99.90;;;;;;4885601;29;20280;-82
2024/03/21 00:51:57;;;;;;;4.20;3.87;;;10.40;99.90;;;;;;4876782;29;20900;-82
2024/03/21 00:54:23;;;;;;;4.95;4.40;;;10.10;99.90;;;;;;4894874;29;20579;-82
2024/03/21 00:56:48;;;;;;;6.50;4.30;;;10.10;99.90;;;;;;4876965;29;20209;-82
2024/03/21 00:59:14;;;;;;;10.10;4.40;;;9.90;99.90;;;;;;4913478;29;20541;-82
2024/03/21 01:01:40;;;;;;;6.67;4.33;;;10.20;99.90;;;;;;4906067;29;20797;-82
2024/03/21 01:04:06;;;;;;;4.40;3.90;;;10.10;99.90;;;;;;4882165;29;20385;-82
2024/03/21 01:06:32;;;;;;;7.18;4.50;;;10.40;99.90;;;;;;4892581;29;20276;-82
2024/03/21 01:08:58;;;;;;;3.90;3.60;;;10.20;99.90;;;;;;4898426;29;20731;-81
2024/03/21 01:11:24;;;;;;;3.60;3.30;;;10.40;99.90;;;;;;4895036;29;20441;-82
2024/03/21 01:13:49;;;;;;;4.83;4.33;;;10.30;99.90;;;;;;4880941;29;20181;-82
2024/03/21 01:16:15;;;;;;;4.10;3.70;;;10.60;99.90;;;;;;4894267;29;20731;-82
2024/03/21 01:18:40;;;;;;;4.07;3.67;;;10.00;99.90;;;;;;4893597;29;20221;-82
2024/03/21 01:21:08;;;;;;;9.40;4.00;;;10.10;99.90;;;;;;4881461;29;20208;-82
2024/03/21 01:23:34;;;;;;;4.38;3.97;;;10.70;99.90;;;;;;4891883;29;20205;-82
2024/03/21 01:26:00;;;;;;;4.05;3.65;;;10.90;99.90;;;;;;4879410;29;20212;-81
2024/03/21 01:28:25;;;;;;;4.87;3.90;;;10.40;99.90;;;;;;4897867;29;20201;-82
2024/03/21 01:30:51;;;;;;;4.07;3.63;;;10.80;99.90;;;;;;4894830;29;20453;-83
2024/03/21 01:33:18;;;;;;;4.30;3.90;;;10.10;99.90;;;;;;4898027;29;20284;-83
2024/03/21 01:35:44;;;;;;;3.90;3.50;;;10.70;99.90;;;;;;4900779;29;20217;-83
2024/03/21 01:38:09;;;;;;;5.60;3.97;;;10.80;99.90;;;;;;4894945;29;20572;-82
2024/03/21 01:40:38;;;;;;;3.60;3.30;;;10.70;99.90;;;;;;4898573;29;20197;-83
2024/03/21 01:43:20;;;;;;;5.35;3.92;;;10.30;99.90;;;;;;4880686;29;20231;-82
2024/03/21 01:46:11;;;;;;;4.28;3.90;;;10.80;99.90;;;;;;4893884;29;20229;-83
2024/03/21 01:49:03;;;;;;;5.50;3.50;;;10.40;99.90;;;;;;4885510;29;20568;-82
2024/03/21 01:51:29;;;;;;;4.03;3.28;;;10.20;99.90;;;;;;4897547;29;20188;-83
2024/03/21 01:53:55;;;;;;;4.00;3.67;;;10.00;99.90;;;;;;4883145;29;20279;-83
2024/03/21 01:56:21;;;;;;;6.68;3.90;;;10.50;99.90;;;;;;4878994;29;20238;-83
2024/03/21 01:58:47;;;;;;;5.63;3.50;;;10.30;99.90;;;;;;4891957;29;20242;-83
2024/03/21 02:01:18;;;;;;;3.63;3.33;;;10.30;99.90;;;;;;4897156;29;20416;-83
2024/03/21 02:03:44;;;;;;;5.82;3.55;;;10.40;99.90;;;;;;4912073;29;20182;-83
2024/03/21 02:06:09;;;;;;;3.87;3.40;;;10.40;99.90;;;;;;4896272;29;20200;-83
2024/03/21 02:08:35;;;;;;;3.37;3.07;;;10.70;99.90;;;;;;4897202;29;20228;-82
2024/03/21 02:11:01;;;;;;;4.20;2.80;;;10.50;99.90;;;;;;4891552;29;20899;-83
2024/03/21 02:13:26;;;;;;;3.80;3.00;;;10.30;99.90;;;;;;4902672;29;20208;-83
2024/03/21 02:15:51;;;;;;;4.27;3.27;;;10.30;99.90;;;;;;4914988;29;20218;-83
2024/03/21 02:18:17;;;;;;;3.60;3.30;;;10.90;99.90;;;;;;4905078;29;20236;-82
2024/03/21 02:20:42;;;;;;;4.57;4.10;;;10.70;99.90;;;;;;4894806;29;20340;-83
2024/03/21 02:23:10;;;;;;;4.03;3.17;;;11.00;99.90;;;;;;4894256;29;20216;-83
2024/03/21 02:25:36;;;;;;;3.60;3.30;;;10.40;99.90;;;;;;4910196;29;20192;-83
2024/03/21 02:28:01;;;;;;;3.83;3.43;;;10.50;99.90;;;;;;4881716;29;20215;-83
2024/03/21 02:30:27;;;;;;;3.53;3.20;;;10.50;99.90;;;;;;4894814;29;20443;-83
2024/03/21 02:32:53;;;;;;;4.37;3.23;;;10.80;99.90;;;;;;4883933;29;20700;-83
2024/03/21 02:35:19;;;;;;;3.37;3.07;;;;;;;;;;4893567;29;20241;-82
2024/03/21 02:37:44;;;;;;;3.50;3.20;;;10.90;99.90;;;;;;4894782;29;20206;-83
2024/03/21 02:40:10;;;;;;;3.50;3.20;;;11.00;99.90;;;;;;4912878;29;20270;-83
2024/03/21 02:42:36;;;;;;;8.95;3.97;;;11.00;99.90;;;;;;4896398;29;20695;-82
2024/03/21 02:45:02;;;;;;;5.40;3.40;;;11.10;99.90;;;;;;4892004;29;20271;-83
2024/03/21 02:47:27;;;;;;;5.80;3.57;;;10.80;99.90;;;;;;4899425;29;20458;-83
2024/03/21 02:49:53;;;;;;;3.50;3.20;;;11.40;99.90;;;;;;4882687;29;20212;-83
2024/03/21 02:52:18;;;;;;;4.17;3.27;;;10.70;99.90;;;;;;4877537;29;20599;-83
2024/03/21 02:54:44;;;;;;;5.13;3.40;;;11.10;99.90;;;;;;4904068;29;20228;-83
2024/03/21 02:57:10;;;;;;;3.30;2.97;;;11.30;99.90;;;;;;4907194;29;20833;-83
2024/03/21 02:59:37;;;;;;;3.45;3.15;;;11.10;99.90;;;;;;4921643;29;20214;-83
2024/03/21 03:02:03;;;;;;;3.35;3.05;;;10.90;99.90;;;;;;4890900;29;20211;-83
2024/03/21 03:04:29;;;;;;;3.55;3.20;;;11.00;99.90;;;;;;4905548;29;20209;-83
2024/03/21 03:06:55;;;;;;;3.38;3.08;;;11.20;99.90;;;;;;4899573;29;20249;-83
2024/03/21 03:09:20;;;;;;;3.23;3.00;;;11.20;99.90;;;;;;4906166;29;20608;-83
2024/03/21 03:11:46;;;;;;;3.20;2.90;;;11.50;99.90;;;;;;4920423;29;20198;-83
2024/03/21 03:14:11;;;;;;;3.63;3.20;;;11.30;99.90;;;;;;4903201;29;20231;-83
2024/03/21 03:16:37;;;;;;;2.97;2.60;;;11.70;99.90;;;;;;4904172;29;20226;-83
2024/03/21 03:19:03;;;;;;;4.20;3.07;;;11.20;99.90;;;;;;4904466;29;20195;-83
2024/03/21 03:21:29;;;;;;;4.20;3.00;;;11.30;99.90;;;;;;4887639;29;20723;-83
2024/03/21 03:23:54;;;;;;;3.20;2.90;;;11.50;99.90;;;;;;4900188;29;20188;-83
2024/03/21 03:26:20;;;;;;;2.70;2.50;;;11.50;99.90;;;;;;4898307;29;20205;-83
2024/03/21 03:28:45;;;;;;;3.57;2.90;;;11.60;99.90;;;;;;4900928;29;20594;-83
2024/03/21 03:31:11;;;;;;;3.73;3.37;;;11.50;99.90;;;;;;4906895;29;20637;-84
2024/03/21 03:36:22;;;;;;;3.10;2.90;;;12.10;99.90;;;;;;4903993;29;20225;-82
2024/03/21 03:38:47;;;;;;;3.70;2.78;;;11.80;99.90;;;;;;4887492;29;20215;-82
2024/03/21 03:41:13;;;;;;;6.13;3.37;;;11.70;99.90;;;;;;4921138;29;20621;-81
2024/03/21 03:43:38;;;;;;;3.20;2.90;;;11.70;99.90;;;;;;4913324;29;20241;-82
2024/03/21 03:46:04;;;;;;;3.67;3.37;;;11.60;99.90;;;;;;4899431;29;20226;-82
2024/03/21 03:48:30;;;;;;;2.97;2.77;;;12.30;99.90;;;;;;4902661;29;20254;-82
2024/03/21 03:50:55;;;;;;;4.03;3.30;;;12.20;99.90;;;;;;4901934;29;20179;-82
2024/03/21 03:53:21;;;;;;;4.00;2.97;;;11.90;99.90;;;;;;4915887;29;20175;-82
2024/03/21 03:55:46;;;;;;;4.03;2.90;;;11.60;99.90;;;;;;4901479;29;20270;-82
2024/03/21 03:58:12;;;;;;;3.50;2.70;;;11.60;99.90;;;;;;4900047;29;20308;-82
2024/03/21 04:00:37;;;;;;;4.37;3.47;;;11.60;99.90;;;;;;4913712;29;20179;-82
2024/03/21 04:03:03;;;;;;;3.40;2.83;;;11.90;99.90;;;;;;4899408;29;20876;-81
2024/03/21 04:05:29;;;;;;;3.87;3.00;;;11.90;99.90;;;;;;4895277;29;20222;-84
2024/03/21 04:07:54;;;;;;;5.03;3.40;;;11.80;99.90;;;;;;4890597;29;20521;-85
2024/03/21 04:10:20;;;;;;;6.43;4.37;;;12.10;99.90;;;;;;4889192;29;20191;-82
2024/03/21 04:12:45;;;;;;;4.10;3.70;;;11.80;99.90;;;;;;4873823;29;20283;-84
2024/03/21 04:15:11;;;;;;;4.70;4.30;;;12.00;99.90;;;;;;4874127;29;20569;-85
2024/03/21 04:17:36;;;;;;;4.93;4.30;;;11.90;99.90;;;;;;4896656;29;20282;-85
2024/03/21 04:20:06;;;;;;;4.90;3.73;;;11.90;99.90;;;;;;4908337;29;20262;-84
2024/03/21 04:22:35;;;;;;;5.07;4.30;;;12.00;99.90;;;;;;4891046;29;20234;-84
2024/03/21 04:25:05;;;;;;;4.38;3.90;;;11.90;99.90;;;;;;4879406;29;20195;-84
2024/03/21 04:27:31;;;;;;;4.28;3.83;;;12.00;99.90;;;;;;4877338;29;20207;-84
2024/03/21 04:29:59;;;;;;;5.75;4.30;;;12.10;99.90;;;;;;4877826;29;20258;-84
2024/03/21 04:32:25;;;;;;;5.38;4.88;;;12.30;99.90;;;;;;4878821;29;20190;-83
2024/03/21 04:34:50;;;;;;;4.40;4.00;;;12.30;99.90;;;;;;4893407;29;20234;-84
2024/03/21 04:37:18;;;;;;;6.90;4.03;;;12.30;99.90;;;;;;4876935;29;21300;-83
2024/03/21 04:39:48;;;;;;;5.07;4.57;;;12.00;99.90;;;;;;4897421;29;20211;-83
2024/03/21 04:42:15;;;;;;;4.75;4.03;;;11.90;99.90;;;;;;4894816;29;20186;-83
2024/03/21 04:44:44;;;;;;;7.05;3.90;;;11.30;99.90;;;;;;4888908;29;20206;-83
2024/03/21 04:47:10;;;;;;;4.30;3.90;;;11.50;99.90;;;;;;4893657;29;20221;-83
2024/03/21 04:49:36;;;;;;;4.50;4.10;;;11.60;99.90;;;;;;4878344;29;20194;-83
2024/03/21 04:52:02;;;;;;;4.30;3.90;;;11.40;99.90;;;;;;4877070;29;20246;-83
2024/03/21 04:54:28;;;;;;;3.85;3.50;;;11.40;99.90;;;;;;4877617;29;20253;-83
2024/03/21 04:56:53;;;;;;;3.73;3.43;;;11.20;99.90;;;;;;4885467;29;20242;-83
2024/03/21 04:59:21;;;;;;;4.60;4.20;;;11.50;99.90;;;;;;4899266;29;20190;-83
2024/03/21 05:01:47;;;;;;;6.63;4.05;;;11.40;99.90;;;;;;4917635;29;20236;-83
2024/03/21 05:04:12;;;;;;;4.33;3.60;;;11.30;99.90;;;;;;4913073;29;20189;-83
2024/03/21 05:06:38;;;;;;;3.60;3.30;;;11.30;99.90;;;;;;4890175;29;20235;-83
2024/03/21 05:09:03;;;;;;;5.40;3.50;;;11.30;99.90;;;;;;4896247;29;20202;-83
2024/03/21 05:11:29;;;;;;;4.93;3.87;;;11.10;99.90;;;;;;4897979;29;20838;-83
2024/03/21 05:13:54;;;;;;;6.03;4.20;;;11.30;99.90;;;;;;4872747;29;20236;-83
2024/03/21 05:16:20;;;;;;;4.67;3.90;;;11.40;99.90;;;;;;4904131;29;20225;-83
2024/03/21 05:18:46;;;;;;;5.03;4.13;;;11.20;99.90;;;;;;4900478;29;20210;-83
2024/03/21 05:21:12;;;;;;;4.60;4.10;;;11.30;99.90;;;;;;4897581;29;20796;-83
2024/03/21 05:23:37;;;;;;;4.23;3.60;;;11.70;99.90;;;;;;4878355;29;20197;-83
2024/03/21 05:26:03;;;;;;;3.87;3.47;;;11.40;99.90;;;;;;4896490;29;20210;-83
2024/03/21 05:28:28;;;;;;;4.60;3.80;;;11.40;99.90;;;;;;4881113;29;20190;-83
2024/03/21 05:30:54;;;;;;;4.67;4.00;;;11.20;99.90;;;;;;4874034;29;20252;-83
2024/03/21 05:33:20;;;;;;;5.33;3.60;;;11.30;99.90;;;;;;4878316;29;20494;-83
2024/03/21 05:35:46;;;;;;;3.97;3.58;;;11.90;99.90;;;;;;4876478;29;20219;-83
2024/03/21 05:38:11;;;;;;;3.63;3.23;;;11.00;99.90;;;;;;4881048;29;20761;-83
2024/03/21 05:40:40;;;;;;;3.93;3.27;;;11.40;99.90;;;;;;4894682;29;20669;-83
2024/03/21 05:43:09;;;;;;;4.30;3.55;;;11.30;99.90;;;;;;4893102;29;20221;-84
2024/03/21 05:45:35;;;;;;;3.63;3.20;;;11.30;99.90;;;;;;4897755;29;20205;-83
2024/03/21 05:48:01;;;;;;;3.70;3.20;;;11.50;99.90;;;;;;4893017;29;20202;-83
2024/03/21 05:50:26;;;;;;;4.40;4.00;;;10.90;99.90;;;;;;4880914;29;20193;-83
2024/03/21 05:52:52;;;;;;;3.53;3.23;;;12.00;99.90;;;;;;4902022;29;20801;-83
2024/03/21 05:55:17;;;;;;;4.60;3.63;;;11.70;99.90;;;;;;4899413;29;20191;-84
2024/03/21 05:57:43;;;;;;;3.83;3.30;;;11.80;99.90;;;;;;4885446;29;20222;-86
2024/03/21 06:00:16;;;;;;;5.80;3.30;;;11.60;99.90;;;;;;4898069;29;20212;-86
2024/03/21 06:02:41;;;;;;;4.43;4.00;;;11.60;99.90;;;;;;4886425;29;20241;-86
2024/03/21 06:05:07;;;;;;;4.40;4.00;;;11.50;99.90;;;;;;4904679;29;20320;-88
2024/03/21 06:07:33;;;;;;;4.30;3.83;;;11.50;99.90;;;;;;4893725;29;20222;-87
2024/03/21 06:09:58;;;;;;;4.93;4.17;;;11.70;99.90;;;;;;4894004;29;20447;-87
2024/03/21 06:12:24;;;;;;;4.13;3.73;;;11.50;99.90;;;;;;4887966;29;20194;-86
2024/03/21 06:14:49;;;;;;;5.97;3.40;;;11.90;99.90;;;;;;4902069;29;20195;-87
2024/03/21 06:17:15;;;;;;;4.37;3.80;;;11.50;99.90;;;;;;4893662;29;20238;-87
2024/03/21 06:19:40;;;;;;;5.70;3.77;;;12.60;99.90;;;;;;4905119;29;20669;-86
2024/03/21 06:22:06;;;;;;;4.20;3.80;;;12.50;99.90;;;;;;4888992;29;20213;-86
2024/03/21 06:24:33;;;;;;;8.53;4.73;;;12.40;99.90;;;;;;4888824;29;20903;-86
2024/03/21 06:26:59;;;;;;;4.15;3.75;;;12.30;99.90;;;;;;4881421;29;20301;-86
2024/03/21 06:29:28;;;;;;;5.75;5.15;;;11.90;99.90;;;;;;4885868;29;20189;-86
2024/03/21 06:31:54;;;;;;;6.72;4.70;;;13.00;99.90;;;;;;4900699;29;20200;-86
2024/03/21 06:34:19;;;;;;;5.50;4.90;;;13.10;99.90;;;;;;4897978;29;20535;-87
2024/03/21 06:36:45;;;;;;;6.97;5.30;;;12.50;99.90;;;;;;4885859;29;20211;-87
2024/03/21 06:39:13;;;;;;;5.90;5.30;;;12.80;99.90;;;;;;4899227;29;20196;-86
2024/03/21 06:41:40;;;;;;;5.55;4.75;;;13.20;99.90;;;;;;4903697;29;20186;-86
2024/03/21 06:44:05;;;;;;;6.28;5.60;;;12.90;99.90;;;;;;4880832;29;20195;-86
2024/03/21 06:46:33;;;;;;;6.53;5.90;;;13.00;99.90;;;;;;4890697;29;20587;-87
2024/03/21 06:48:58;;;;;;;6.83;6.20;;;13.00;99.90;;;;;;5042494;23;20686;-86
2024/03/21 06:51:24;;;;;;;6.10;5.50;;;12.80;99.90;;;;;;4938261;28;20691;-86
2024/03/21 06:53:49;;;;;;;10.77;5.90;;;12.90;99.90;;;;;;4923505;29;20185;-86
2024/03/21 06:56:15;;;;;;;6.67;5.97;;;13.10;99.90;;;;;;4926866;29;20233;-86
2024/03/21 06:58:40;;;;;;;6.80;5.77;;;13.30;99.90;;;;;;4938285;29;20198;-86
2024/03/21 07:01:06;;;;;;;6.70;6.10;;;13.60;99.90;;;;;;4927281;29;20194;-86
2024/03/21 07:03:31;;;;;;;7.47;5.50;;;13.40;99.90;;;;;;4930848;29;20185;-86
2024/03/21 07:05:59;;;;;;;6.97;6.30;;;13.40;99.90;;;;;;4926178;29;20247;-86
2024/03/21 07:08:24;;;;;;;6.55;5.93;;;13.70;99.90;;;;;;4930916;29;20196;-86
2024/03/21 07:10:50;;;;;;;9.63;6.57;;;13.90;99.90;;;;;;4922450;29;20265;-86
2024/03/21 07:13:15;;;;;;;7.37;6.67;;;13.70;99.90;;;;;;4912143;29;20185;-85
2024/03/21 07:15:44;;;;;;;6.80;6.10;;;13.10;99.90;;;;;;4925502;29;20278;-85
2024/03/21 07:18:12;;;;;;;8.80;6.60;;;13.70;99.90;;;;;;4910416;29;20305;-85
2024/03/21 07:20:41;;;;;;;6.93;6.20;;;14.00;99.90;;;;;;4932838;29;20221;-85
2024/03/21 07:23:07;;;;;;;9.48;6.50;;;13.80;99.90;;;;;;4923970;29;20192;-85
2024/03/21 07:25:35;;;;;;;7.18;6.40;;;13.50;99.90;;;;;;4920216;29;20201;-85
2024/03/21 07:28:02;;;;;;;10.60;7.13;;;13.70;99.90;;;;;;4923439;29;20201;-85
2024/03/21 07:30:27;;;;;;;6.80;6.10;;;13.20;99.90;;;;;;4923158;29;20294;-86
2024/03/21 07:32:53;;;;;;;11.03;6.80;;;13.40;99.90;;;;;;4923895;29;20205;-86
2024/03/21 07:35:18;;;;;;;8.47;7.57;;;13.80;99.90;;;;;;4907589;29;20194;-86
2024/03/21 07:37:44;;;;;;;8.97;6.63;;;14.00;99.90;;;;;;4943677;29;20213;-86
2024/03/21 07:40:10;;;;;;;11.37;8.43;;;14.20;99.90;;;;;;4934691;28;20190;-85
2024/03/21 07:42:35;;;;;;;8.43;7.20;;;14.00;99.90;;;;;;4939111;28;20196;-85
2024/03/21 07:45:03;;;;;;;9.73;6.77;;;14.30;99.90;;;;;;4933138;28;20468;-85
2024/03/21 07:47:29;;;;;;;8.02;7.10;;;14.50;99.90;;;;;;4907562;29;20300;-85
2024/03/21 07:49:54;;;;;;;11.47;6.83;;;14.40;99.90;;;;;;4922459;29;20221;-85
2024/03/21 07:52:20;;;;;;;8.93;7.00;;;14.60;99.90;;;;;;4926269;29;20189;-85
2024/03/21 07:54:46;;;;;;;10.02;6.60;;;14.80;99.90;;;;;;4929713;29;20206;-84
2024/03/21 07:57:14;;;;;;;7.97;6.90;;;15.00;99.90;;;;;;4939018;29;20237;-85
2024/03/21 07:59:39;;;;;;;10.02;6.97;;;15.30;99.90;;;;;;4938316;29;20202;-85
2024/03/21 08:02:53;;;;;;;9.73;8.70;;;15.40;99.90;;;;;;4932904;29;20273;-85
2024/03/21 08:05:19;;;;;;;12.30;8.57;;;15.20;99.90;;;;;;4936333;29;20647;-85
2024/03/21 08:07:45;;;;;;;10.82;7.13;;;17.40;99.90;;;;;;4924359;29;20742;-85
2024/03/21 08:10:11;;;;;;;14.03;8.20;;;15.60;99.90;;;;;;4931990;29;20182;-85
2024/03/21 08:12:36;;;;;;;12.13;7.83;;;15.80;99.90;;;;;;4922871;28;20186;-85
2024/03/21 08:15:02;;;;;;;14.17;7.50;;;16.10;99.90;;;;;;4939225;29;20199;-86
2024/03/21 08:17:28;;;;;;;8.97;7.40;;;15.70;99.90;;;;;;4937416;28;20205;-85
2024/03/21 08:19:54;;;;;;;9.97;7.63;;;15.80;99.90;;;;;;4929170;29;20694;-85
2024/03/21 08:22:20;;;;;;;9.27;7.32;;;16.10;99.90;;;;;;4921987;29;20703;-86
2024/03/21 08:24:46;;;;;;;9.13;7.43;;;16.30;99.90;;;;;;4923796;29;20643;-86
2024/03/21 08:27:11;;;;;;;8.80;7.60;;;16.60;99.90;;;;;;4920598;29;20285;-86
2024/03/21 08:29:37;;;;;;;10.00;7.70;;;16.40;99.90;;;;;;4923624;29;20185;-86
2024/03/21 08:32:08;;;;;;;10.33;7.30;;;16.50;99.80;;;;;;4940474;29;20208;-86
2024/03/21 08:34:34;;;;;;;11.35;7.60;;;16.70;99.70;;;;;;4924031;29;20448;-86
2024/03/21 08:36:59;;;;;;;13.47;8.90;;;17.00;99.50;;;;;;4917488;29;20680;-86
2024/03/21 08:39:25;;;;;;;9.10;8.20;;;17.20;98.90;;;;;;4920728;29;20321;-86
2024/03/21 08:41:50;;;;;;;9.57;8.30;;;17.10;99.20;;;;;;4938094;29;20217;-86
2024/03/21 08:44:16;;;;;;;12.50;7.40;;;16.80;98.90;;;;;;4920109;29;20190;-86
2024/03/21 08:46:41;;;;;;;12.37;9.50;;;18.30;99.70;;;;;;4923988;29;20444;-86
2024/03/21 08:49:07;;;;;;;15.00;9.00;;;16.90;99.20;;;;;;4921777;29;20201;-87
2024/03/21 08:51:32;;;;;;;16.60;9.07;;;17.10;99.00;;;;;;4923826;29;20215;-86
2024/03/21 08:53:58;;;;;;;12.13;8.63;;;17.00;98.80;;;;;;4923507;29;20193;-86
2024/03/21 08:56:24;;;;;;;8.70;7.80;;;16.70;98.90;;;;;;4928951;29;20296;-86
2024/03/21 08:58:49;;;;;;;11.73;9.17;;;16.90;99.10;;;;;;4919771;29;20213;-85
2024/03/21 09:01:14;;;;;;;9.80;8.17;;;16.50;99.50;;;;;;4923856;29;20197;-85
2024/03/21 09:03:40;;;;;;;8.70;7.33;;;16.70;99.90;;;;;;4925329;29;20197;-85
2024/03/21 09:06:06;;;;;;;9.17;7.67;;;17.00;99.50;;;;;;4926388;29;20705;-85
2024/03/21 09:08:34;;;;;;;11.03;7.30;;;17.20;98.70;;;;;;4920176;29;20253;-86
2024/03/21 09:11:03;;;;;;;6.85;6.15;;;17.30;98.70;;;;;;4923109;29;20700;-86
2024/03/21 09:13:29;;;;;;;7.45;6.15;;;17.20;98.60;;;;;;4919732;29;20199;-86
2024/03/21 09:15:55;;;;;;;6.13;5.00;;;17.60;98.70;;;;;;4921843;29;20209;-86
2024/03/21 09:18:21;;;;;;;4.85;4.40;;;18.90;97.90;;;;;;4927613;29;20252;-86
2024/03/21 09:20:47;;;;;;;5.40;4.60;;;20.40;95.50;;;;;;4923761;29;20256;-86
2024/03/21 09:23:13;;;;;;;4.50;4.10;;;20.80;93.10;;;;;;4924413;29;20516;-86
2024/03/21 09:25:39;;;;;;;4.55;4.15;;;21.20;91.60;;;;;;4925422;28;20201;-85
2024/03/21 09:28:05;;;;;;;5.73;4.50;;;21.00;91.90;;;;;;4923137;29;20624;-86
2024/03/21 09:30:31;;;;;;;4.25;3.85;;;20.80;91.70;;;;;;4945571;29;20185;-86
2024/03/21 09:32:57;;;;;;;6.33;4.00;;;20.60;92.40;;;;;;4939706;29;20614;-86
2024/03/21 09:35:23;;;;;;;4.67;4.27;;;20.00;92.50;;;;;;4950423;28;20207;-86
2024/03/21 09:37:49;;;;;;;5.10;4.17;;;20.50;91.50;;;;;;4925803;29;20212;-86
2024/03/21 09:40:17;;;;;;;5.13;4.40;;;21.00;91.00;;;;;;4922513;29;20804;-87
2024/03/21 09:42:43;;;;;;;4.67;4.00;;;21.00;90.20;;;;;;4920807;29;20448;-86
2024/03/21 09:45:15;;;;;;;5.47;4.60;;;21.50;89.60;;;;;;4919485;29;20473;-84
2024/03/21 09:47:42;;;;;;;4.40;4.00;;;21.60;88.60;;;;;;4918086;29;20560;-86
2024/03/21 09:50:12;;;;;;;6.40;5.60;;;21.30;89.30;;;;;;4934274;29;20467;-85
2024/03/21 09:52:41;;;;;;;7.50;3.83;;;21.30;88.90;;;;;;4935561;29;20477;-85
2024/03/21 09:55:15;;;;;;;5.17;4.67;;;21.40;89.00;;;;;;4920184;29;20457;-86
2024/03/21 09:57:42;;;;;;;4.90;4.07;;;21.10;89.70;;;;;;4940224;29;20471;-86
2024/03/21 10:00:14;;;;;;;13.27;9.85;;;20.70;90.40;;;;;;4922388;29;20182;-86
2024/03/21 10:02:40;;;;;;;6.82;4.55;;;20.30;90.20;;;;;;4922419;29;20559;-86
2024/03/21 10:05:08;;;;;;;8.70;4.90;;;20.80;90.20;;;;;;4923823;29;20189;-85
2024/03/21 10:07:36;;;;;;;4.30;4.00;;;20.70;89.70;;;;;;4920024;29;20224;-86
2024/03/21 10:10:03;;;;;;;5.57;4.35;;;20.60;90.00;;;;;;4943526;29;20950;-86
2024/03/21 10:12:30;;;;;;;6.10;5.55;;;20.30;90.20;;;;;;4923654;29;20276;-85
2024/03/21 10:14:56;;;;;;;6.28;4.93;;;20.20;90.60;;;;;;4921443;29;20191;-86
2024/03/21 10:17:25;;;;;;;4.90;4.40;;;20.90;91.20;;;;;;4928770;29;20233;-86
2024/03/21 10:19:52;;;;;;;5.25;4.72;;;20.00;90.80;;;;;;4959534;28;20445;-86
2024/03/21 10:22:19;;;;;;;7.20;5.10;;;20.50;90.70;;;;;;4940119;29;20205;-86
2024/03/21 10:24:53;;;;;;;5.73;5.20;;;22.50;88.00;;;;;;4968492;28;20467;-86
2024/03/21 10:27:24;;;;;;;5.50;5.00;;;22.90;83.00;;;;;;4953743;28;20496;-86
2024/03/21 10:29:50;;;;;;;6.00;5.23;;;22.90;81.70;;;;;;4915410;29;20450;-86
2024/03/21 10:32:21;;;;;;;5.97;5.23;;;23.50;80.10;;;;;;4920705;29;20540;-86
2024/03/21 10:34:50;;;;;;;5.60;5.10;;;23.90;78.50;;;;;;4921381;29;20947;-86
2024/03/21 10:37:17;;;;;;;6.33;5.73;;;24.30;77.70;;;;;;4953127;28;20471;-86
2024/03/21 10:39:43;;;;;;;8.77;6.27;;;24.20;76.80;;;;;;4950808;28;20506;-86
2024/03/21 10:42:23;;;;;;;7.67;5.80;;;24.10;76.10;;;;;;4921973;29;20437;-87
2024/03/21 10:44:51;;;;;;;7.23;6.53;;;23.40;77.60;;;;;;4951465;28;20437;-86
2024/03/21 10:47:18;;;;;;;9.57;7.10;;;23.00;79.30;;;;;;4921505;29;20479;-86
2024/03/21 10:49:44;;;;;;;9.30;8.10;;;22.00;79.50;;;;;;4919055;29;21669;-85
2024/03/21 10:52:14;;;;;;;8.50;7.60;;;21.60;82.90;;;;;;4921490;29;20557;-86
2024/03/21 10:54:41;;;;;;;8.63;7.70;;;21.60;84.60;;;;;;4921085;29;20186;-86
2024/03/21 10:57:19;;;;;;;9.47;8.50;;;20.70;85.60;;;;;;4924265;29;20623;-84
2024/03/21 10:59:56;;;;;;;8.82;7.95;;;20.40;87.20;;;;;;4927571;29;20510;-85
2024/03/21 11:02:32;;;;;;;9.25;8.45;;;19.80;88.20;;;;;;4924266;29;20250;-85
2024/03/21 11:05:09;;;;;;;8.45;7.70;;;19.50;89.30;;;;;;4939355;29;20184;-86
2024/03/21 11:07:34;;;;;;;8.73;7.93;;;19.20;89.80;;;;;;4934289;29;20667;-86
2024/03/21 11:10:03;;;;;;;8.97;8.07;;;18.90;90.70;;;;;;4936613;29;20198;-86
2024/03/21 11:12:30;;;;;;;9.27;7.22;;;19.70;90.40;;;;;;4930222;29;20197;-86
2024/03/21 11:14:57;;;;;;;8.15;7.05;;;21.10;88.80;;;;;;4921369;29;20189;-86
2024/03/21 11:17:24;;;;;;;10.38;7.63;;;20.60;86.90;;;;;;4915681;29;20213;-87
2024/03/21 11:19:53;;;;;;;7.50;6.80;;;20.70;87.50;;;;;;4931200;29;20268;-87
2024/03/21 11:22:18;;;;;;;7.20;6.50;;;20.20;88.10;;;;;;4917263;29;20205;-87
2024/03/21 11:24:44;;;;;;;7.30;6.60;;;21.00;88.80;;;;;;4917094;29;20228;-87
2024/03/21 11:27:17;;;;;;;8.00;7.23;;;22.10;85.90;;;;;;4918054;29;20209;-87
2024/03/21 11:29:43;;;;;;;10.30;6.67;;;22.40;83.40;;;;;;4916565;29;20718;-87
2024/03/21 11:32:09;;;;;;;8.30;7.30;;;22.40;81.50;;;;;;4933402;29;20448;-87
2024/03/21 11:34:39;;;;;;;7.67;7.03;;;21.80;81.90;;;;;;4918419;29;20442;-87
2024/03/21 11:37:12;;;;;;;8.00;7.23;;;21.90;83.40;;;;;;4936938;29;20201;-87
2024/03/21 11:39:39;;;;;;;7.97;7.17;;;22.40;82.80;;;;;;4917218;29;20438;-87
2024/03/21 11:42:13;;;;;;;9.57;8.57;;;22.00;81.30;;;;;;4918571;29;20448;-87
2024/03/21 11:44:40;;;;;;;10.02;9.23;;;21.40;83.40;;;;;;4942646;28;20446;-87
2024/03/21 11:47:13;;;;;;;9.65;8.85;;;21.30;84.90;;;;;;4906177;29;20213;-86
2024/03/21 11:49:48;;;;;;;10.23;8.27;;;20.60;86.10;;;;;;4926958;29;20228;-87
2024/03/21 11:52:15;;;;;;;10.47;9.37;;;20.90;85.90;;;;;;4921264;29;22164;-87
2024/03/21 11:54:42;;;;;;;11.17;10.00;;;21.80;84.10;;;;;;4911579;29;20445;-87
2024/03/21 11:57:11;;;;;;;14.07;10.17;;;22.00;83.80;;;;;;4935961;29;20476;-87
2024/03/21 11:59:46;;;;;;;10.23;9.20;;;21.80;82.70;;;;;;4955267;28;20468;-87
2024/03/21 12:02:13;;;;;;;11.85;10.38;;;21.20;83.10;;;;;;4924939;29;20853;-87
2024/03/21 12:04:40;;;;;;;10.95;9.85;;;21.40;84.60;;;;;;4927106;29;20190;-87
2024/03/21 12:07:11;;;;;;;11.02;9.65;;;20.90;85.20;;;;;;4922053;29;20209;-87
2024/03/21 12:09:36;;;;;;;10.80;9.45;;;20.30;86.10;;;;;;4928221;29;20196;-87
2024/03/21 12:12:02;;;;;;;11.33;9.00;;;20.10;86.00;;;;;;4918022;29;20189;-87
2024/03/21 12:14:28;;;;;;;10.70;9.73;;;20.00;86.10;;;;;;4922619;29;20208;-86
2024/03/21 12:16:54;;;;;;;10.53;9.57;;;20.30;86.70;;;;;;4912216;29;20212;-86
2024/03/21 12:19:19;;;;;;;10.37;9.37;;;19.70;86.90;;;;;;4923065;29;20213;-86
2024/03/21 12:21:45;;;;;;;13.30;10.57;;;19.90;87.70;;;;;;4923888;29;20185;-86
2024/03/21 12:24:12;;;;;;;12.30;11.10;;;19.90;88.10;;;;;;4941297;29;20280;-86
2024/03/21 12:26:37;;;;;;;11.48;10.35;;;20.00;89.30;;;;;;4923709;29;20711;-87
2024/03/21 12:29:03;;;;;;;13.20;10.67;;;19.90;90.20;;;;;;4914174;29;20193;-86
2024/03/21 12:31:29;;;;;;;11.20;10.20;;;19.80;90.10;;;;;;4917394;29;20379;-86
2024/03/21 12:33:59;;;;;;;10.77;9.68;;;19.80;90.00;;;;;;4922222;29;20193;-86
2024/03/21 12:36:25;;;;;;;11.35;10.15;;;19.60;89.80;;;;;;4918610;29;20236;-86
2024/03/21 12:38:51;;;;;;;13.27;11.60;;;19.70;90.20;;;;;;4916859;29;20244;-86
2024/03/21 12:41:16;;;;;;;11.80;10.60;;;20.30;90.30;;;;;;4919152;29;20233;-87
2024/03/21 12:43:42;;;;;;;10.67;9.77;;;19.40;90.00;;;;;;4917216;29;20529;-87
2024/03/21 12:46:12;;;;;;;12.33;11.20;;;19.70;90.90;;;;;;4920307;29;20284;-86